Troy, Alabama
Current Conditions -  °F | °C
As of 5:53 AM on Saturday 01 Nov 2014 (Local Time) from KTOI Reporting Station
Clear Clear  
Wind Chill: 31°   Ceiling: Unl
Heat Index: 38°   Visibility: 10mi
Dew Point: 25°   Wind: 9mph
Humidity: 60%   Direction: 300°WNW
Pressure: 30.14"   Gusts: NA
Location:  31.81°N, 85.97°W
Report Text: KTOI 011053Z AUTO 30008KT 10SM CLR 03/M04 A3014 RMK AO2 SLP206 T00331039
Loading
Personal Weather Stations






























Interactive Weather Map
Tropical Storm Tracking
New forecast layout! Learn more

10-Day Weather Forecast

Advertisements
Track Severe Weather on mobile